sensor_id;sensor_type;location;lat;lon;timestamp;pressure;altitude;pressure_sealevel;temperature;humidity
64192;BME280;50497;50.720;-2.084;2023-02-01T00:02:23;102641.63;;;4.60;100.00
64192;BME280;50497;50.720;-2.084;2023-02-01T00:04:52;102657.66;;;4.76;100.00
64192;BME280;50497;50.720;-2.084;2023-02-01T00:07:17;102626.59;;;4.61;100.00
64192;BME280;50497;50.720;-2.084;2023-02-01T00:09:43;102646.09;;;4.69;100.00
64192;BME280;50497;50.720;-2.084;2023-02-01T00:12:08;102643.38;;;4.57;100.00
64192;BME280;50497;50.720;-2.084;2023-02-01T00:14:34;102649.69;;;4.74;100.00
64192;BME280;50497;50.720;-2.084;2023-02-01T00:17:05;102644.34;;;4.73;100.00
64192;BME280;50497;50.720;-2.084;2023-02-01T00:19:32;102628.44;;;4.68;100.00
64192;BME280;50497;50.720;-2.084;2023-02-01T00:22:01;102646.97;;;4.70;100.00
64192;BME280;50497;50.720;-2.084;2023-02-01T00:24:26;102649.69;;;4.74;100.00
64192;BME280;50497;50.720;-2.084;2023-02-01T00:26:52;102637.28;;;4.70;100.00
64192;BME280;50497;50.720;-2.084;2023-02-01T00:29:20;102632.88;;;4.71;100.00
64192;BME280;50497;50.720;-2.084;2023-02-01T00:31:46;102614.28;;;4.68;100.00
64192;BME280;50497;50.720;-2.084;2023-02-01T00:34:14;102629.34;;;4.70;100.00
64192;BME280;50497;50.720;-2.084;2023-02-01T00:36:40;102632.03;;;4.78;100.00
64192;BME280;50497;50.720;-2.084;2023-02-01T00:39:06;102632.03;;;4.75;100.00
64192;BME280;50497;50.720;-2.084;2023-02-01T00:41:31;102632.88;;;4.71;100.00
64192;BME280;50497;50.720;-2.084;2023-02-01T00:43:57;102621.28;;;4.59;100.00
64192;BME280;50497;50.720;-2.084;2023-02-01T00:46:22;102639.94;;;4.69;100.00
64192;BME280;50497;50.720;-2.084;2023-02-01T00:48:51;102635.47;;;4.66;100.00
64192;BME280;50497;50.720;-2.084;2023-02-01T00:51:19;102635.41;;;4.57;100.00
64192;BME280;50497;50.720;-2.084;2023-02-01T00:53:46;102634.50;;;4.52;100.00
64192;BME280;50497;50.720;-2.084;2023-02-01T00:56:12;102645.06;;;4.47;100.00
64192;BME280;50497;50.720;-2.084;2023-02-01T00:58:37;102613.13;;;4.33;100.00
64192;BME280;50497;50.720;-2.084;2023-02-01T01:03:29;102633.59;;;4.53;100.00
64192;BME280;50497;50.720;-2.084;2023-02-01T01:05:59;102633.63;;;4.56;100.00
64192;BME280;50497;50.720;-2.084;2023-02-01T01:08:25;102629.25;;;4.59;100.00
64192;BME280;50497;50.720;-2.084;2023-02-01T01:10:50;102615.94;;;4.52;100.00
64192;BME280;50497;50.720;-2.084;2023-02-01T01:13:16;102617.78;;;4.60;100.00
64192;BME280;50497;50.720;-2.084;2023-02-01T01:15:41;102596.47;;;4.51;100.00
64192;BME280;50497;50.720;-2.084;2023-02-01T01:18:07;102622.22;;;4.66;100.00
64192;BME280;50497;50.720;-2.084;2023-02-01T01:20:38;102624.00;;;4.67;100.00
64192;BME280;50497;50.720;-2.084;2023-02-01T01:23:07;102621.34;;;4.67;100.00
64192;BME280;50497;50.720;-2.084;2023-02-01T01:25:39;102616.06;;;4.67;100.00
64192;BME280;50497;50.720;-2.084;2023-02-01T01:28:10;102624.00;;;4.66;100.00
64192;BME280;50497;50.720;-2.084;2023-02-01T01:30:35;102598.28;;;4.55;100.00
64192;BME280;50497;50.720;-2.084;2023-02-01T01:33:01;102601.03;;;4.68;100.00
64192;BME280;50497;50.720;-2.084;2023-02-01T01:35:33;102598.41;;;4.72;100.00
64192;BME280;50497;50.720;-2.084;2023-02-01T01:37:59;102580.72;;;4.73;100.00
64192;BME280;50497;50.720;-2.084;2023-02-01T01:40:26;102561.22;;;4.60;100.00
64192;BME280;50497;50.720;-2.084;2023-02-01T01:42:52;102586.00;;;4.71;100.00
64192;BME280;50497;50.720;-2.084;2023-02-01T01:45:30;102592.22;;;4.70;100.00
64192;BME280;50497;50.720;-2.084;2023-02-01T01:48:04;102598.41;;;4.72;100.00
64192;BME280;50497;50.720;-2.084;2023-02-01T01:50:37;102572.69;;;4.60;100.00
64192;BME280;50497;50.720;-2.084;2023-02-01T01:53:07;102583.34;;;4.71;100.00
64192;BME280;50497;50.720;-2.084;2023-02-01T01:55:37;102582.50;;;4.74;100.00
64192;BME280;50497;50.720;-2.084;2023-02-01T01:58:09;102579.81;;;4.68;100.00
64192;BME280;50497;50.720;-2.084;2023-02-01T02:00:35;102588.78;;;4.85;100.00
64192;BME280;50497;50.720;-2.084;2023-02-01T02:03:11;102576.34;;;4.75;100.00
64192;BME280;50497;50.720;-2.084;2023-02-01T02:05:39;102578.06;;;4.73;100.00
64192;BME280;50497;50.720;-2.084;2023-02-01T02:08:04;102604.66;;;4.80;100.00
64192;BME280;50497;50.720;-2.084;2023-02-01T02:10:30;102602.00;;;4.80;100.00
64192;BME280;50497;50.720;-2.084;2023-02-01T02:13:15;102604.66;;;4.82;100.00
64192;BME280;50497;50.720;-2.084;2023-02-01T02:15:47;102608.16;;;4.78;100.00
64192;BME280;50497;50.720;-2.084;2023-02-01T02:18:27;102595.72;;;4.68;100.00
64192;BME280;50497;50.720;-2.084;2023-02-01T02:21:12;102599.25;;;4.67;100.00
64192;BME280;50497;50.720;-2.084;2023-02-01T02:24:16;102629.31;;;4.69;100.00
64192;BME280;50497;50.720;-2.084;2023-02-01T02:33:16;102606.34;;;4.71;100.00
64192;BME280;50497;50.720;-2.084;2023-02-01T02:35:45;102593.94;;;4.63;100.00
64192;BME280;50497;50.720;-2.084;2023-02-01T02:44:54;102606.28;;;4.61;100.00
64192;BME280;50497;50.720;-2.084;2023-02-01T02:47:45;102607.22;;;4.68;100.00
64192;BME280;50497;50.720;-2.084;2023-02-01T02:50:26;102612.47;;;4.60;100.00
64192;BME280;50497;50.720;-2.084;2023-02-01T02:53:16;102590.22;;;4.43;100.00
64192;BME280;50497;50.720;-2.084;2023-02-01T02:56:04;102601.75;;;4.50;100.00
64192;BME280;50497;50.720;-2.084;2023-02-01T02:58:50;102604.44;;;4.51;100.00
64192;BME280;50497;50.720;-2.084;2023-02-01T03:01:35;102616.81;;;4.52;100.00
64192;BME280;50497;50.720;-2.084;2023-02-01T03:04:20;102597.34;;;4.46;100.00
64192;BME280;50497;50.720;-2.084;2023-02-01T03:06:46;102600.88;;;4.49;100.00
64192;BME280;50497;50.720;-2.084;2023-02-01T03:09:21;102590.22;;;4.41;100.00
64192;BME280;50497;50.720;-2.084;2023-02-01T03:11:49;102602.63;;;4.44;100.00
64192;BME280;50497;50.720;-2.084;2023-02-01T03:14:37;102587.56;;;4.38;100.00
64192;BME280;50497;50.720;-2.084;2023-02-01T03:17:13;102596.44;;;4.45;100.00
64192;BME280;50497;50.720;-2.084;2023-02-01T03:19:43;102596.41;;;4.39;100.00
64192;BME280;50497;50.720;-2.084;2023-02-01T03:22:16;102594.66;;;4.42;100.00
64192;BME280;50497;50.720;-2.084;2023-02-01T03:24:50;102607.06;;;4.45;100.00
64192;BME280;50497;50.720;-2.084;2023-02-01T03:32:32;102599.88;;;4.35;100.00
64192;BME280;50497;50.720;-2.084;2023-02-01T03:35:23;102577.75;;;4.25;100.00
64192;BME280;50497;50.720;-2.084;2023-02-01T03:38:00;102590.97;;;4.23;100.00
64192;BME280;50497;50.720;-2.084;2023-02-01T03:40:27;102584.78;;;4.24;100.00
64192;BME280;50497;50.720;-2.084;2023-02-01T03:42:58;102600.72;;;4.28;100.00
64192;BME280;50497;50.720;-2.084;2023-02-01T03:45:34;102592.72;;;4.24;100.00
64192;BME280;50497;50.720;-2.084;2023-02-01T03:48:02;102597.19;;;4.27;100.00
64192;BME280;50497;50.720;-2.084;2023-02-01T03:50:30;102598.06;;;4.28;100.00
64192;BME280;50497;50.720;-2.084;2023-02-01T03:53:10;102594.53;;;4.25;100.00
64192;BME280;50497;50.720;-2.084;2023-02-01T03:55:40;102594.59;;;4.32;100.00
64192;BME280;50497;50.720;-2.084;2023-02-01T03:58:11;102595.41;;;4.26;100.00
64192;BME280;50497;50.720;-2.084;2023-02-01T04:00:38;102584.81;;;4.28;100.00
64192;BME280;50497;50.720;-2.084;2023-02-01T04:03:04;102583.97;;;4.30;100.00
64192;BME280;50497;50.720;-2.084;2023-02-01T04:05:30;102583.97;;;4.30;100.00
64192;BME280;50497;50.720;-2.084;2023-02-01T04:07:57;102588.34;;;4.30;100.00
64192;BME280;50497;50.720;-2.084;2023-02-01T04:10:22;102567.94;;;4.16;100.00
64192;BME280;50497;50.720;-2.084;2023-02-01T04:12:48;102566.13;;;4.11;100.00
64192;BME280;50497;50.720;-2.084;2023-02-01T04:15:13;102582.97;;;4.19;100.00
64192;BME280;50497;50.720;-2.084;2023-02-01T04:17:39;102585.56;;;4.13;100.00
64192;BME280;50497;50.720;-2.084;2023-02-01T04:20:04;102587.28;;;4.07;100.00
64192;BME280;50497;50.720;-2.084;2023-02-01T04:22:30;102570.41;;;3.98;100.00
64192;BME280;50497;50.720;-2.084;2023-02-01T04:24:55;102583.75;;;4.05;100.00
64192;BME280;50497;50.720;-2.084;2023-02-01T04:27:21;102578.34;;;3.96;100.00
64192;BME280;50497;50.720;-2.084;2023-02-01T04:29:47;102576.50;;;3.87;100.00
64192;BME280;50497;50.720;-2.084;2023-02-01T04:32:15;102569.41;;;3.85;100.00
64192;BME280;50497;50.720;-2.084;2023-02-01T04:34:41;102563.16;;;3.78;100.00
64192;BME280;50497;50.720;-2.084;2023-02-01T04:37:06;102578.28;;;3.87;100.00
64192;BME280;50497;50.720;-2.084;2023-02-01T04:39:32;102582.56;;;3.74;100.00
64192;BME280;50497;50.720;-2.084;2023-02-01T04:42:01;102579.94;;;3.77;100.00
64192;BME280;50497;50.720;-2.084;2023-02-01T04:44:26;102562.19;;;3.68;100.00
64192;BME280;50497;50.720;-2.084;2023-02-01T04:46:53;102590.59;;;3.82;100.00
64192;BME280;50497;50.720;-2.084;2023-02-01T04:49:18;102588.84;;;3.84;100.00
64192;BME280;50497;50.720;-2.084;2023-02-01T04:51:46;102574.66;;;3.79;100.00
64192;BME280;50497;50.720;-2.084;2023-02-01T04:54:11;102569.41;;;3.86;100.00
64192;BME280;50497;50.720;-2.084;2023-02-01T04:56:37;102572.91;;;3.79;100.00
64192;BME280;50497;50.720;-2.084;2023-02-01T04:59:03;102570.31;;;3.85;100.00
64192;BME280;50497;50.720;-2.084;2023-02-01T05:01:29;102551.69;;;3.78;100.00
64192;BME280;50497;50.720;-2.084;2023-02-01T05:03:55;102554.44;;;3.85;100.00
64192;BME280;50497;50.720;-2.084;2023-02-01T05:06:21;102558.78;;;3.79;100.00
64192;BME280;50497;50.720;-2.084;2023-02-01T05:08:47;102578.25;;;3.85;100.00
64192;BME280;50497;50.720;-2.084;2023-02-01T05:11:12;102555.19;;;3.74;100.00
64192;BME280;50497;50.720;-2.084;2023-02-01T05:13:57;102576.47;;;3.84;100.00
64192;BME280;50497;50.720;-2.084;2023-02-01T05:16:23;102566.66;;;3.74;100.00
64192;BME280;50497;50.720;-2.084;2023-02-01T05:18:49;102560.50;;;3.74;100.00
64192;BME280;50497;50.720;-2.084;2023-02-01T05:21:14;102571.03;;;3.70;100.00
64192;BME280;50497;50.720;-2.084;2023-02-01T05:23:40;102573.53;;;3.57;100.00
64192;BME280;50497;50.720;-2.084;2023-02-01T05:26:24;102578.78;;;3.55;100.00
64192;BME280;50497;50.720;-2.084;2023-02-01T05:28:53;102590.28;;;3.54;100.00
64192;BME280;50497;50.720;-2.084;2023-02-01T05:31:18;102593.88;;;3.59;100.00
64192;BME280;50497;50.720;-2.084;2023-02-01T05:33:44;102602.75;;;3.66;100.00
64192;BME280;50497;50.720;-2.084;2023-02-01T05:36:09;102601.91;;;3.67;100.00
64192;BME280;50497;50.720;-2.084;2023-02-01T05:38:35;102600.16;;;3.69;100.00
64192;BME280;50497;50.720;-2.084;2023-02-01T05:41:00;102602.78;;;3.67;100.00
64192;BME280;50497;50.720;-2.084;2023-02-01T05:43:26;102607.28;;;3.76;100.00
64192;BME280;50497;50.720;-2.084;2023-02-01T05:45:51;102601.16;;;3.79;100.00
64192;BME280;50497;50.720;-2.084;2023-02-01T05:48:17;102611.72;;;3.79;100.00
64192;BME280;50497;50.720;-2.084;2023-02-01T05:50:43;102576.41;;;3.80;100.00
64192;BME280;50497;50.720;-2.084;2023-02-01T05:53:08;102589.69;;;3.83;100.00
64192;BME280;50497;50.720;-2.084;2023-02-01T05:55:34;102587.13;;;3.91;100.00
64192;BME280;50497;50.720;-2.084;2023-02-01T05:57:59;102583.72;;;4.02;100.00
64192;BME280;50497;50.720;-2.084;2023-02-01T06:00:25;102559.75;;;3.88;100.00
64192;BME280;50497;50.720;-2.084;2023-02-01T06:02:51;102566.91;;;3.99;100.00
64192;BME280;50497;50.720;-2.084;2023-02-01T06:05:16;102564.25;;;3.97;100.00
64192;BME280;50497;50.720;-2.084;2023-02-01T06:07:41;102564.22;;;3.96;100.00
64192;BME280;50497;50.720;-2.084;2023-02-01T06:10:08;102563.38;;;4.00;100.00
64192;BME280;50497;50.720;-2.084;2023-02-01T06:12:33;102556.19;;;3.86;100.00
64192;BME280;50497;50.720;-2.084;2023-02-01T06:14:59;102555.34;;;3.89;100.00
64192;BME280;50497;50.720;-2.084;2023-02-01T06:17:24;102564.16;;;3.88;100.00
64192;BME280;50497;50.720;-2.084;2023-02-01T06:19:50;102545.53;;;3.79;100.00
64192;BME280;50497;50.720;-2.084;2023-02-01T06:22:15;102557.09;;;3.87;100.00
64192;BME280;50497;50.720;-2.084;2023-02-01T06:24:41;102555.34;;;3.91;100.00
64192;BME280;50497;50.720;-2.084;2023-02-01T06:27:06;102557.16;;;3.96;100.00
64192;BME280;50497;50.720;-2.084;2023-02-01T06:29:32;102568.66;;;3.98;100.00
64192;BME280;50497;50.720;-2.084;2023-02-01T06:31:58;102545.56;;;3.83;100.00
64192;BME280;50497;50.720;-2.084;2023-02-01T06:34:24;102554.50;;;3.95;100.00
64192;BME280;50497;50.720;-2.084;2023-02-01T06:36:49;102555.31;;;3.87;100.00
64192;BME280;50497;50.720;-2.084;2023-02-01T06:39:15;102546.31;;;3.70;100.00
64192;BME280;50497;50.720;-2.084;2023-02-01T06:41:45;102553.44;;;3.74;100.00
64192;BME280;50497;50.720;-2.084;2023-02-01T06:44:10;102566.88;;;3.96;100.00
64192;BME280;50497;50.720;-2.084;2023-02-01T06:46:36;102546.41;;;3.78;100.00
64192;BME280;50497;50.720;-2.084;2023-02-01T06:49:01;102559.75;;;3.88;100.00
64192;BME280;50497;50.720;-2.084;2023-02-01T06:51:27;102561.59;;;3.97;100.00
64192;BME280;50497;50.720;-2.084;2023-02-01T06:53:54;102540.34;;;3.89;100.00
64192;BME280;50497;50.720;-2.084;2023-02-01T06:56:20;102545.72;;;3.99;100.00
64192;BME280;50497;50.720;-2.084;2023-02-01T06:58:45;102560.78;;;4.04;100.00
64192;BME280;50497;50.720;-2.084;2023-02-01T07:01:11;102554.63;;;4.12;100.00
64192;BME280;50497;50.720;-2.084;2023-02-01T07:03:37;102556.47;;;4.16;100.00
64192;BME280;50497;50.720;-2.084;2023-02-01T07:06:03;102552.94;;;4.18;100.00
64192;BME280;50497;50.720;-2.084;2023-02-01T07:08:30;102563.59;;;4.24;100.00
64192;BME280;50497;50.720;-2.084;2023-02-01T07:10:56;102561.84;;;4.28;100.00
64192;BME280;50497;50.720;-2.084;2023-02-01T07:13:22;102563.66;;;4.31;100.00
64192;BME280;50497;50.720;-2.084;2023-02-01T07:15:47;102540.59;;;4.20;100.00
64192;BME280;50497;50.720;-2.084;2023-02-01T07:18:14;102568.06;;;4.33;100.00
64192;BME280;50497;50.720;-2.084;2023-02-01T07:20:40;102557.50;;;4.38;100.00
64192;BME280;50497;50.720;-2.084;2023-02-01T07:23:05;102565.50;;;4.44;100.00
64192;BME280;50497;50.720;-2.084;2023-02-01T07:25:31;102541.56;;;4.30;100.00
64192;BME280;50497;50.720;-2.084;2023-02-01T07:27:57;102576.06;;;4.38;100.00
64192;BME280;50497;50.720;-2.084;2023-02-01T07:30:23;102569.03;;;4.43;100.00
64192;BME280;50497;50.720;-2.084;2023-02-01T07:32:51;102548.63;;;4.31;100.00
64192;BME280;50497;50.720;-2.084;2023-02-01T07:35:17;102566.38;;;4.38;100.00
64192;BME280;50497;50.720;-2.084;2023-02-01T07:37:42;102554.81;;;4.30;100.00
64192;BME280;50497;50.720;-2.084;2023-02-01T07:40:12;102579.66;;;4.46;100.00
64192;BME280;50497;50.720;-2.084;2023-02-01T07:42:37;102577.91;;;4.45;100.00
64192;BME280;50497;50.720;-2.084;2023-02-01T07:45:04;102590.34;;;4.55;100.00
64192;BME280;50497;50.720;-2.084;2023-02-01T07:47:31;102587.78;;;4.69;100.00
64192;BME280;50497;50.720;-2.084;2023-02-01T07:50:02;102580.66;;;4.59;100.00
64192;BME280;50497;50.720;-2.084;2023-02-01T07:52:28;102582.41;;;4.57;100.00
64192;BME280;50497;50.720;-2.084;2023-02-01T07:54:57;102583.28;;;4.57;100.00
64192;BME280;50497;50.720;-2.084;2023-02-01T07:57:26;102581.53;;;4.62;100.00
64192;BME280;50497;50.720;-2.084;2023-02-01T07:59:52;102577.09;;;4.61;100.00
64192;BME280;50497;50.720;-2.084;2023-02-01T08:02:37;102585.06;;;4.58;100.00
64192;BME280;50497;50.720;-2.084;2023-02-01T08:05:02;102574.44;;;4.55;100.00
64192;BME280;50497;50.720;-2.084;2023-02-01T08:07:29;102554.91;;;4.44;100.00
64192;BME280;50497;50.720;-2.084;2023-02-01T08:09:55;102573.56;;;4.58;100.00
64192;BME280;50497;50.720;-2.084;2023-02-01T08:12:20;102574.44;;;4.55;100.00
64192;BME280;50497;50.720;-2.084;2023-02-01T08:14:50;102571.84;;;4.66;100.00
64192;BME280;50497;50.720;-2.084;2023-02-01T08:17:21;102576.28;;;4.66;100.00
64192;BME280;50497;50.720;-2.084;2023-02-01T08:19:55;102573.66;;;4.72;100.00
64192;BME280;50497;50.720;-2.084;2023-02-01T08:22:23;102547.97;;;4.66;100.00
64192;BME280;50497;50.720;-2.084;2023-02-01T08:24:49;102567.50;;;4.79;100.00
64192;BME280;50497;50.720;-2.084;2023-02-01T08:27:14;102577.28;;;4.88;100.00
64192;BME280;50497;50.720;-2.084;2023-02-01T08:29:40;102564.94;;;4.90;100.00
64192;BME280;50497;50.720;-2.084;2023-02-01T08:32:08;102549.84;;;4.84;100.00
64192;BME280;50497;50.720;-2.084;2023-02-01T08:34:38;102550.75;;;4.81;100.00
64192;BME280;50497;50.720;-2.084;2023-02-01T08:37:07;102588.78;;;4.91;100.00
64192;BME280;50497;50.720;-2.084;2023-02-01T08:39:33;102579.97;;;4.95;100.00
64192;BME280;50497;50.720;-2.084;2023-02-01T08:42:01;102574.66;;;4.92;100.00
64192;BME280;50497;50.720;-2.084;2023-02-01T08:44:49;102578.28;;;5.13;100.00
64192;BME280;50497;50.720;-2.084;2023-02-01T08:47:18;102575.66;;;5.17;100.00
64192;BME280;50497;50.720;-2.084;2023-02-01T08:49:47;102568.66;;;5.32;100.00
64192;BME280;50497;50.720;-2.084;2023-02-01T08:52:12;102558.91;;;5.23;100.00
64192;BME280;50497;50.720;-2.084;2023-02-01T08:54:39;102582.84;;;5.42;100.00
64192;BME280;50497;50.720;-2.084;2023-02-01T08:57:09;102580.19;;;5.39;100.00
64192;BME280;50497;50.720;-2.084;2023-02-01T08:59:35;102605.03;;;5.54;100.00
64192;BME280;50497;50.720;-2.084;2023-02-01T09:02:04;102595.28;;;5.52;100.00
64192;BME280;50497;50.720;-2.084;2023-02-01T09:04:35;102590.88;;;5.57;100.00
64192;BME280;50497;50.720;-2.084;2023-02-01T09:07:01;102554.56;;;5.59;100.00
64192;BME280;50497;50.720;-2.084;2023-02-01T09:09:27;102569.66;;;5.63;100.00
64192;BME280;50497;50.720;-2.084;2023-02-01T09:11:53;102588.28;;;5.85;100.00
64192;BME280;50497;50.720;-2.084;2023-02-01T09:14:21;102598.00;;;5.84;100.00
64192;BME280;50497;50.720;-2.084;2023-02-01T09:16:47;102589.16;;;5.87;100.00
64192;BME280;50497;50.720;-2.084;2023-02-01T09:19:12;102582.06;;;5.89;100.00
64192;BME280;50497;50.720;-2.084;2023-02-01T09:21:37;102582.16;;;6.01;100.00
64192;BME280;50497;50.720;-2.084;2023-02-01T09:24:03;102604.28;;;6.19;100.00
64192;BME280;50497;50.720;-2.084;2023-02-01T09:26:29;102596.34;;;6.25;100.00
64192;BME280;50497;50.720;-2.084;2023-02-01T09:28:55;102591.91;;;6.39;100.00
64192;BME280;50497;50.720;-2.084;2023-02-01T09:31:20;102583.94;;;6.39;100.00
64192;BME280;50497;50.720;-2.084;2023-02-01T09:33:46;102601.66;;;6.56;100.00
64192;BME280;50497;50.720;-2.084;2023-02-01T09:36:15;102606.97;;;6.53;100.00
64192;BME280;50497;50.720;-2.084;2023-02-01T09:38:41;102604.28;;;6.57;100.00
64192;BME280;50497;50.720;-2.084;2023-02-01T09:43:49;102612.25;;;6.90;100.00
64192;BME280;50497;50.720;-2.084;2023-02-01T09:46:22;102606.91;;;6.87;100.00
64192;BME280;50497;50.720;-2.084;2023-02-01T09:48:58;102624.63;;;7.08;100.00
64192;BME280;50497;50.720;-2.084;2023-02-01T09:51:37;102613.91;;;7.21;100.00
64192;BME280;50497;50.720;-2.084;2023-02-01T09:54:09;102642.28;;;7.33;100.00
64192;BME280;50497;50.720;-2.084;2023-02-01T09:56:47;102636.03;;;7.44;100.00
64192;BME280;50497;50.720;-2.084;2023-02-01T09:59:37;102642.19;;;7.55;100.00
64192;BME280;50497;50.720;-2.084;2023-02-01T10:02:08;102639.50;;;7.66;100.00
64192;BME280;50497;50.720;-2.084;2023-02-01T10:04:36;102645.69;;;7.66;100.00
64192;BME280;50497;50.720;-2.084;2023-02-01T10:18:27;102651.69;;;8.08;100.00
64192;BME280;50497;50.720;-2.084;2023-02-01T10:21:09;102658.78;;;8.12;100.00
64192;BME280;50497;50.720;-2.084;2023-02-01T10:24:02;102659.66;;;8.10;100.00
64192;BME280;50497;50.720;-2.084;2023-02-01T10:26:33;102643.66;;;8.13;100.00
64192;BME280;50497;50.720;-2.084;2023-02-01T10:29:04;102655.00;;;8.47;100.00
64192;BME280;50497;50.720;-2.084;2023-02-01T10:31:33;102662.66;;;8.87;100.00
64192;BME280;50497;50.720;-2.084;2023-02-01T10:34:09;102680.22;;;9.15;100.00
64192;BME280;50497;50.720;-2.084;2023-02-01T10:36:48;102690.56;;;9.42;100.00
64192;BME280;50497;50.720;-2.084;2023-02-01T10:39:15;102698.88;;;9.91;100.00
64192;BME280;50497;50.720;-2.084;2023-02-01T10:41:44;102705.97;;;9.95;100.00
64192;BME280;50497;50.720;-2.084;2023-02-01T10:44:16;102699.75;;;9.94;100.00
64192;BME280;50497;50.720;-2.084;2023-02-01T10:46:46;102717.94;;;10.36;100.00
64192;BME280;50497;50.720;-2.084;2023-02-01T10:49:22;102718.09;;;10.83;100.00
64192;BME280;50497;50.720;-2.084;2023-02-01T10:52:12;102738.19;;;11.55;100.00
64192;BME280;50497;50.720;-2.084;2023-02-01T10:54:40;102755.28;;;11.96;100.00
64192;BME280;50497;50.720;-2.084;2023-02-01T10:57:24;102765.41;;;11.82;100.00
64192;BME280;50497;50.720;-2.084;2023-02-01T10:59:56;102763.22;;;12.42;100.00
64192;BME280;50497;50.720;-2.084;2023-02-01T11:02:34;102760.97;;;12.23;100.00
64192;BME280;50497;50.720;-2.084;2023-02-01T11:05:13;102756.06;;;12.44;100.00
64192;BME280;50497;50.720;-2.084;2023-02-01T11:07:51;102762.84;;;12.60;100.00
64192;BME280;50497;50.720;-2.084;2023-02-01T11:10:41;102747.88;;;13.22;100.00
64192;BME280;50497;50.720;-2.084;2023-02-01T11:13:17;102761.84;;;13.00;100.00
64192;BME280;50497;50.720;-2.084;2023-02-01T11:15:55;102757.09;;;12.75;100.00
64192;BME280;50497;50.720;-2.084;2023-02-01T11:18:29;102749.34;;;12.99;100.00
64192;BME280;50497;50.720;-2.084;2023-02-01T11:21:00;102734.25;;;12.93;100.00
64192;BME280;50497;50.720;-2.084;2023-02-01T11:23:29;102754.47;;;13.08;100.00
64192;BME280;50497;50.720;-2.084;2023-02-01T11:26:01;102747.44;;;13.03;100.00
64192;BME280;50497;50.720;-2.084;2023-02-01T11:28:35;102739.78;;;13.56;100.00
64192;BME280;50497;50.720;-2.084;2023-02-01T11:31:12;102735.66;;;14.35;100.00
64192;BME280;50497;50.720;-2.084;2023-02-01T11:33:50;102749.88;;;15.22;100.00
64192;BME280;50497;50.720;-2.084;2023-02-01T11:36:20;102743.91;;;14.59;100.00
64192;BME280;50497;50.720;-2.084;2023-02-01T11:39:18;102755.34;;;14.08;100.00
64192;BME280;50497;50.720;-2.084;2023-02-01T11:42:17;102745.59;;;14.33;100.00
64192;BME280;50497;50.720;-2.084;2023-02-01T11:44:50;102744.09;;;14.81;100.00
64192;BME280;50497;50.720;-2.084;2023-02-01T11:47:26;102756.63;;;15.09;100.00
64192;BME280;50497;50.720;-2.084;2023-02-01T11:50:02;102752.88;;;14.30;100.00
64192;BME280;50497;50.720;-2.084;2023-02-01T12:14:28;102706.28;;;11.43;100.00
64192;BME280;50497;50.720;-2.084;2023-02-01T12:20:00;102714.81;;;13.18;100.00
64192;BME280;50497;50.720;-2.084;2023-02-01T12:39:51;102729.72;;;13.30;100.00
64192;BME280;50497;50.720;-2.084;2023-02-01T12:42:48;102721.81;;;13.58;100.00
64192;BME280;50497;50.720;-2.084;2023-02-01T12:48:02;102707.81;;;13.45;100.00
64192;BME280;50497;50.720;-2.084;2023-02-01T12:50:44;102700.66;;;14.35;100.00
64192;BME280;50497;50.720;-2.084;2023-02-01T12:53:41;102703.81;;;15.28;100.00
64192;BME280;50497;50.720;-2.084;2023-02-01T12:56:05;102688.31;;;15.59;100.00
64192;BME280;50497;50.720;-2.084;2023-02-01T12:58:46;102699.13;;;15.84;100.00
64192;BME280;50497;50.720;-2.084;2023-02-01T13:01:21;102683.88;;;15.58;100.00
64192;BME280;50497;50.720;-2.084;2023-02-01T13:03:59;102693.78;;;14.82;100.00
64192;BME280;50497;50.720;-2.084;2023-02-01T13:06:38;102706.09;;;15.89;100.00
64192;BME280;50497;50.720;-2.084;2023-02-01T13:11:40;102703.09;;;15.97;100.00
64192;BME280;50497;50.720;-2.084;2023-02-01T13:14:44;102697.69;;;16.65;100.00
64192;BME280;50497;50.720;-2.084;2023-02-01T13:17:20;102680.75;;;15.68;100.00
64192;BME280;50497;50.720;-2.084;2023-02-01T13:20:00;102695.59;;;16.28;100.00
64192;BME280;50497;50.720;-2.084;2023-02-01T13:22:34;102693.13;;;16.21;100.00
64192;BME280;50497;50.720;-2.084;2023-02-01T13:25:26;102700.00;;;15.09;100.00
64192;BME280;50497;50.720;-2.084;2023-02-01T13:27:56;102707.81;;;14.91;100.00
64192;BME280;50497;50.720;-2.084;2023-02-01T13:30:34;102696.97;;;16.16;100.00
64192;BME280;50497;50.720;-2.084;2023-02-01T13:33:29;102697.91;;;15.17;100.00
64192;BME280;50497;50.720;-2.084;2023-02-01T13:36:22;102702.44;;;15.42;100.00
64192;BME280;50497;50.720;-2.084;2023-02-01T13:41:58;102692.13;;;14.77;100.00
64192;BME280;50497;50.720;-2.084;2023-02-01T13:44:40;102699.16;;;13.97;100.00
64192;BME280;50497;50.720;-2.084;2023-02-01T13:49:57;102696.16;;;13.46;100.00
64192;BME280;50497;50.720;-2.084;2023-02-01T13:52:51;102692.47;;;13.15;100.00
64192;BME280;50497;50.720;-2.084;2023-02-01T13:55:27;102690.28;;;12.96;100.00
64192;BME280;50497;50.720;-2.084;2023-02-01T13:58:10;102681.84;;;12.77;100.00
64192;BME280;50497;50.720;-2.084;2023-02-01T14:00:42;102680.91;;;12.42;100.00
64192;BME280;50497;50.720;-2.084;2023-02-01T14:03:21;102672.63;;;12.51;100.00
64192;BME280;50497;50.720;-2.084;2023-02-01T14:08:15;102664.38;;;12.59;100.00
64192;BME280;50497;50.720;-2.084;2023-02-01T14:10:57;102679.91;;;12.82;100.00
64192;BME280;50497;50.720;-2.084;2023-02-01T14:23:58;102678.03;;;11.69;100.00
64192;BME280;50497;50.720;-2.084;2023-02-01T14:36:46;102657.25;;;11.38;100.00
64192;BME280;50497;50.720;-2.084;2023-02-01T14:39:31;102669.41;;;11.09;100.00
64192;BME280;50497;50.720;-2.084;2023-02-01T14:55:40;102662.06;;;10.69;100.00
64192;BME280;50497;50.720;-2.084;2023-02-01T14:58:15;102692.97;;;10.90;100.00
64192;BME280;50497;50.720;-2.084;2023-02-01T15:01:27;102689.97;;;10.54;100.00
64192;BME280;50497;50.720;-2.084;2023-02-01T15:04:09;102689.13;;;10.52;100.00